Time;durP1;ratioP1;P1;durP2;ratioP2;P2;SDS_P1;SDS_P2;PMS_P1;PMS_P2;Temp;Humidity;BMP_temperature;BMP_pressure;BME280_temperature;BME280_humidity;BME280_pressure;Samples;Min_cycle;Max_cycle;Signal;HPM_P1;HPM_P2
2023/03/04 00:02:06;;;;;;;15.93;3.65;;;6.20;99.90;;;;;;4942411;29;20066;-59
2023/03/04 00:04:33;;;;;;;9.40;1.90;;;6.20;99.90;;;;;;4946143;28;20332;-58
2023/03/04 00:07:00;;;;;;;12.32;2.22;;;6.20;99.90;;;;;;4932170;29;20518;-59
2023/03/04 00:09:27;;;;;;;14.05;2.65;;;6.20;99.90;;;;;;4932979;29;20051;-58
2023/03/04 00:11:54;;;;;;;10.82;1.80;;;6.20;99.90;;;;;;4949445;29;20051;-57
2023/03/04 00:14:21;;;;;;;15.90;2.70;;;6.20;99.90;;;;;;4590809;28;10001278;-56
2023/03/04 00:16:48;;;;;;;16.20;2.92;;;6.20;99.90;;;;;;4946537;29;20617;-58
2023/03/04 00:19:14;;;;;;;7.82;1.88;;;6.20;99.90;;;;;;4952804;29;20510;-58
2023/03/04 00:21:41;;;;;;;11.50;1.48;;;6.30;99.90;;;;;;4934611;29;20047;-57
2023/03/04 00:24:08;;;;;;;19.38;2.13;;;6.20;99.90;;;;;;4951913;29;20053;-56
2023/03/04 00:26:34;;;;;;;11.27;1.40;;;6.30;99.90;;;;;;4951954;29;20138;-59
2023/03/04 00:29:01;;;;;;;11.55;1.50;;;6.10;99.90;;;;;;4952259;29;20051;-56
2023/03/04 00:31:28;;;;;;;14.13;1.70;;;6.10;99.90;;;;;;4952264;29;20053;-57
2023/03/04 00:33:55;;;;;;;13.95;1.60;;;6.10;99.90;;;;;;4935137;29;20086;-58
2023/03/04 00:36:21;;;;;;;10.80;1.60;;;6.20;99.90;;;;;;4951373;29;20047;-58
2023/03/04 00:38:48;;;;;;;11.85;1.45;;;6.10;99.90;;;;;;4952050;29;20511;-56
2023/03/04 00:41:15;;;;;;;16.17;1.77;;;6.10;99.90;;;;;;4950688;29;20617;-57
2023/03/04 00:43:42;;;;;;;10.80;2.17;;;6.10;99.90;;;;;;4951356;29;20143;-57
2023/03/04 00:46:09;;;;;;;11.07;1.80;;;6.10;99.90;;;;;;4951576;29;20051;-57
2023/03/04 00:48:37;;;;;;;9.95;1.95;;;6.10;99.90;;;;;;4952065;29;20047;-58
2023/03/04 00:51:04;;;;;;;11.93;1.63;;;6.10;99.90;;;;;;4950895;29;20059;-57
2023/03/04 00:53:31;;;;;;;8.23;1.83;;;6.10;99.90;;;;;;4953065;28;20155;-59
2023/03/04 00:55:58;;;;;;;11.38;2.10;;;6.00;99.90;;;;;;4950595;29;20055;-55
2023/03/04 00:58:24;;;;;;;10.23;2.28;;;6.00;99.90;;;;;;4949726;29;20487;-58
2023/03/04 01:00:52;;;;;;;11.20;1.98;;;6.10;99.90;;;;;;4950284;29;20047;-57
2023/03/04 01:03:19;;;;;;;13.60;1.52;;;6.10;99.90;;;;;;4949803;29;20087;-57
2023/03/04 01:05:45;;;;;;;4.68;1.27;;;6.10;99.90;;;;;;4950706;29;20051;-56
2023/03/04 01:08:12;;;;;;;10.43;1.70;;;6.10;99.90;;;;;;4946522;28;20051;-58
2023/03/04 01:10:39;;;;;;;8.15;1.63;;;6.00;99.90;;;;;;4952224;29;20598;-58
2023/03/04 01:13:05;;;;;;;7.05;1.92;;;6.00;99.90;;;;;;4951965;29;20074;-58
2023/03/04 01:15:32;;;;;;;8.95;1.85;;;6.00;99.90;;;;;;4952280;29;20055;-59
2023/03/04 01:17:59;;;;;;;6.07;1.25;;;6.00;99.90;;;;;;4951043;28;20499;-57
2023/03/04 01:20:26;;;;;;;8.25;1.92;;;6.00;99.90;;;;;;4952336;29;20063;-56
2023/03/04 01:22:52;;;;;;;9.15;1.33;;;6.00;99.90;;;;;;4951351;28;20381;-58
2023/03/04 01:25:19;;;;;;;8.70;1.50;;;6.00;99.90;;;;;;4951486;29;20078;-58
2023/03/04 01:27:46;;;;;;;13.10;1.50;;;5.90;99.90;;;;;;4951344;29;20421;-58
2023/03/04 01:30:13;;;;;;;9.05;1.48;;;5.90;99.90;;;;;;4934324;29;20051;-57
2023/03/04 01:32:39;;;;;;;5.43;1.00;;;6.00;99.90;;;;;;4951622;29;20475;-59
2023/03/04 01:35:06;;;;;;;17.35;2.00;;;6.00;99.90;;;;;;4951113;29;20055;-56
2023/03/04 01:37:33;;;;;;;11.30;1.40;;;6.00;99.90;;;;;;4951268;29;20078;-58
2023/03/04 01:40:00;;;;;;;7.30;1.25;;;6.00;99.90;;;;;;4950879;29;20063;-58
2023/03/04 01:42:28;;;;;;;7.18;1.17;;;6.00;99.90;;;;;;4951498;29;20143;-59
2023/03/04 01:44:55;;;;;;;6.60;1.45;;;6.00;99.90;;;;;;4950748;29;20057;-58
2023/03/04 01:47:22;;;;;;;7.70;1.58;;;6.10;99.90;;;;;;4917932;29;20496;-58
2023/03/04 01:49:52;;;;;;;7.35;1.42;;;6.10;99.90;;;;;;4933389;29;20146;-57
2023/03/04 01:52:18;;;;;;;3.78;1.00;;;6.00;99.90;;;;;;4918753;29;20048;-57
2023/03/04 01:54:45;;;;;;;12.90;2.05;;;6.00;99.90;;;;;;4935405;29;20061;-58
2023/03/04 01:57:17;;;;;;;9.52;1.17;;;6.00;99.90;;;;;;4934370;29;20057;-57
2023/03/04 01:59:44;;;;;;;8.82;1.23;;;5.90;99.90;;;;;;4933774;29;20055;-58
2023/03/04 02:02:11;;;;;;;9.38;1.45;;;5.90;99.90;;;;;;4950899;29;20509;-58
2023/03/04 02:04:37;;;;;;;14.27;1.42;;;5.90;99.90;;;;;;4933442;29;20051;-58
2023/03/04 02:07:04;;;;;;;4.85;1.30;;;5.90;99.90;;;;;;4934104;29;20082;-58
2023/03/04 02:09:32;;;;;;;9.82;1.80;;;6.00;99.90;;;;;;4938943;29;20078;-58
2023/03/04 02:11:58;;;;;;;11.80;1.50;;;5.90;99.90;;;;;;4950666;29;20058;-56
2023/03/04 02:14:25;;;;;;;8.48;1.40;;;5.90;99.90;;;;;;4933211;29;20054;-57
2023/03/04 02:16:52;;;;;;;8.60;1.58;;;5.90;99.90;;;;;;4590219;28;10000583;-57
2023/03/04 02:19:32;;;;;;;7.22;1.70;;;5.80;99.90;;;;;;4947335;29;20065;-59
2023/03/04 02:21:58;;;;;;;9.27;2.10;;;5.90;99.90;;;;;;4934613;29;20073;-57
2023/03/04 02:24:38;;;;;;;6.05;1.00;;;5.90;99.90;;;;;;4958478;28;20051;-57
2023/03/04 02:27:04;;;;;;;3.60;1.02;;;5.90;99.90;;;;;;4919548;29;20183;-57
2023/03/04 02:29:31;;;;;;;8.50;1.48;;;5.90;99.90;;;;;;4949401;28;20458;-57
2023/03/04 02:31:58;;;;;;;5.80;1.15;;;5.90;99.90;;;;;;4949322;29;20134;-57
2023/03/04 02:34:35;;;;;;;9.60;1.60;;;5.90;99.90;;;;;;4933377;29;20075;-57
2023/03/04 02:37:01;;;;;;;14.70;2.45;;;5.90;99.90;;;;;;4960284;28;20126;-57
2023/03/04 02:39:33;;;;;;;3.25;0.85;;;5.90;99.90;;;;;;4950518;29;20047;-57
2023/03/04 02:42:01;;;;;;;10.55;1.20;;;5.90;99.90;;;;;;4949926;29;20051;-58
2023/03/04 02:44:29;;;;;;;3.53;1.20;;;6.00;99.90;;;;;;4950230;29;20547;-59
2023/03/04 02:46:56;;;;;;;11.50;2.40;;;5.90;99.90;;;;;;4949989;29;20044;-60
2023/03/04 02:49:24;;;;;;;9.00;1.25;;;6.00;99.90;;;;;;4933339;29;20414;-58
2023/03/04 02:52:29;;;;;;;5.97;1.55;;;6.00;99.90;;;;;;4917547;29;20043;-58
2023/03/04 02:54:56;;;;;;;11.65;1.15;;;6.00;99.90;;;;;;4932597;28;20541;-58
2023/03/04 02:57:23;;;;;;;10.23;1.70;;;5.90;99.90;;;;;;4950963;28;20049;-58
2023/03/04 02:59:50;;;;;;;5.13;1.13;;;6.00;99.90;;;;;;4933061;29;20130;-58
2023/03/04 03:02:16;;;;;;;8.52;1.27;;;5.90;99.90;;;;;;4950072;29;20051;-58
2023/03/04 03:04:43;;;;;;;8.65;1.38;;;5.90;99.90;;;;;;4950064;29;20082;-59
2023/03/04 03:07:10;;;;;;;10.05;2.30;;;5.90;99.90;;;;;;4949762;29;20047;-58
2023/03/04 03:09:37;;;;;;;11.70;1.48;;;5.90;99.90;;;;;;4954673;28;20522;-54
2023/03/04 03:12:03;;;;;;;5.68;1.25;;;5.90;99.90;;;;;;4957444;28;20055;-57
2023/03/04 03:14:30;;;;;;;11.15;1.08;;;5.90;99.90;;;;;;4932720;29;20055;-56
2023/03/04 03:16:57;;;;;;;11.07;1.75;;;5.90;99.90;;;;;;4949786;29;20048;-61
2023/03/04 03:19:23;;;;;;;6.07;1.20;;;5.90;99.90;;;;;;4949730;29;20055;-57
2023/03/04 03:21:50;;;;;;;4.13;1.55;;;5.80;99.90;;;;;;4949655;29;20049;-56
2023/03/04 03:24:17;;;;;;;9.63;1.75;;;5.90;99.90;;;;;;4932633;29;20047;-54
2023/03/04 03:26:44;;;;;;;5.57;1.35;;;5.80;99.90;;;;;;4949646;29;20520;-56
2023/03/04 03:29:10;;;;;;;8.77;1.40;;;5.90;99.90;;;;;;4949891;29;20057;-56
2023/03/04 03:31:37;;;;;;;11.50;1.58;;;5.90;99.90;;;;;;4932357;29;20049;-57
2023/03/04 03:34:04;;;;;;;7.20;1.10;;;5.90;99.90;;;;;;4949332;29;20142;-58
2023/03/04 03:36:31;;;;;;;8.23;1.25;;;5.80;99.90;;;;;;4949921;29;20073;-57
2023/03/04 03:38:57;;;;;;;6.50;1.60;;;5.80;99.90;;;;;;4949215;29;20059;-56
2023/03/04 03:41:24;;;;;;;11.98;1.27;;;5.80;99.90;;;;;;4952746;28;20487;-55
2023/03/04 03:43:51;;;;;;;7.88;1.13;;;5.70;99.90;;;;;;4953262;29;20134;-57
2023/03/04 03:46:18;;;;;;;6.78;1.13;;;5.70;99.90;;;;;;4953562;29;20058;-57
2023/03/04 03:48:44;;;;;;;6.18;1.13;;;5.80;99.90;;;;;;4953159;29;20050;-57
2023/03/04 03:51:11;;;;;;;11.15;1.77;;;5.80;99.90;;;;;;4953255;29;20459;-58
2023/03/04 03:53:38;;;;;;;5.55;1.27;;;5.90;99.90;;;;;;4952521;29;20507;-57
2023/03/04 03:56:05;;;;;;;5.45;1.02;;;5.80;99.90;;;;;;4953127;29;20093;-58
2023/03/04 03:58:32;;;;;;;5.35;1.00;;;5.80;99.90;;;;;;4952821;29;20155;-57
2023/03/04 04:00:58;;;;;;;10.35;1.40;;;5.80;99.90;;;;;;4952908;29;20113;-59
2023/03/04 04:03:25;;;;;;;6.70;1.30;;;5.90;99.90;;;;;;4952648;29;20501;-57
2023/03/04 04:05:52;;;;;;;6.28;1.30;;;5.90;99.90;;;;;;4917599;29;20134;-55
2023/03/04 04:08:18;;;;;;;8.07;1.10;;;5.80;99.90;;;;;;4935547;29;20114;-56
2023/03/04 04:10:45;;;;;;;8.75;1.48;;;5.90;99.90;;;;;;4952865;29;20492;-58
2023/03/04 04:13:13;;;;;;;3.80;0.85;;;5.80;99.90;;;;;;4958503;28;20057;-58
2023/03/04 04:15:40;;;;;;;10.90;1.05;;;5.80;99.90;;;;;;4952855;29;20043;-57
2023/03/04 04:18:07;;;;;;;12.80;2.05;;;5.90;99.90;;;;;;4952810;29;20082;-56
2023/03/04 04:20:34;;;;;;;7.95;2.10;;;5.90;99.90;;;;;;4952373;29;20135;-56
2023/03/04 04:23:03;;;;;;;11.25;1.38;;;5.90;99.90;;;;;;4952742;29;20051;-58
2023/03/04 04:25:30;;;;;;;3.85;0.88;;;5.90;99.90;;;;;;4935822;29;20084;-55
2023/03/04 04:27:57;;;;;;;6.40;1.35;;;5.90;99.90;;;;;;4935953;29;20047;-58
2023/03/04 04:30:23;;;;;;;14.07;1.60;;;5.90;99.90;;;;;;4934854;29;20158;-55
2023/03/04 04:32:50;;;;;;;8.95;2.13;;;5.90;99.90;;;;;;4952743;29;20365;-57
2023/03/04 04:35:17;;;;;;;6.05;1.45;;;5.90;99.90;;;;;;4934969;29;20110;-58
2023/03/04 04:37:44;;;;;;;7.63;1.52;;;5.80;99.90;;;;;;4935604;29;20047;-57
2023/03/04 04:40:11;;;;;;;7.40;1.23;;;5.80;99.90;;;;;;4952198;29;20087;-58
2023/03/04 04:42:38;;;;;;;5.82;1.15;;;5.80;99.90;;;;;;4952490;29;20098;-55
2023/03/04 04:45:05;;;;;;;5.20;1.13;;;5.80;99.90;;;;;;4953144;28;20057;-58
2023/03/04 04:47:32;;;;;;;10.18;1.02;;;5.90;99.90;;;;;;4952352;29;20043;-59
2023/03/04 04:49:59;;;;;;;6.55;1.00;;;5.90;99.90;;;;;;4951820;29;20078;-57
2023/03/04 04:52:25;;;;;;;8.68;1.48;;;5.90;99.90;;;;;;4951148;28;20491;-58
2023/03/04 04:54:52;;;;;;;6.97;1.30;;;5.90;99.90;;;;;;4951863;29;20054;-54
2023/03/04 04:57:19;;;;;;;10.27;1.65;;;5.90;99.90;;;;;;4952226;29;20226;-57
2023/03/04 04:59:46;;;;;;;6.97;1.30;;;5.90;99.90;;;;;;4951572;29;20043;-58
2023/03/04 05:02:12;;;;;;;7.80;1.90;;;5.90;99.90;;;;;;4951591;29;20155;-58
2023/03/04 05:04:39;;;;;;;10.48;2.05;;;5.90;99.90;;;;;;4951694;29;20055;-58
2023/03/04 05:07:06;;;;;;;9.45;0.93;;;5.90;99.90;;;;;;4951869;29;20047;-58
2023/03/04 05:09:32;;;;;;;9.02;1.23;;;5.90;99.90;;;;;;4951814;29;20142;-58
2023/03/04 05:11:59;;;;;;;6.18;1.58;;;5.90;99.90;;;;;;4951152;29;20051;-58
2023/03/04 05:14:26;;;;;;;5.53;1.00;;;5.90;99.90;;;;;;4934768;29;20047;-57
2023/03/04 05:16:53;;;;;;;7.63;1.60;;;5.90;99.90;;;;;;4951188;29;20132;-57
2023/03/04 05:19:20;;;;;;;6.90;1.38;;;5.90;99.90;;;;;;4952001;29;20442;-57
2023/03/04 05:21:46;;;;;;;7.68;1.80;;;5.90;99.90;;;;;;4933940;29;20511;-59
2023/03/04 05:24:13;;;;;;;6.72;0.98;;;5.90;99.90;;;;;;4934344;29;20055;-58
2023/03/04 05:26:40;;;;;;;10.85;0.95;;;6.00;99.90;;;;;;4951352;29;20506;-59
2023/03/04 05:29:07;;;;;;;16.05;2.15;;;5.90;99.90;;;;;;4934483;29;20055;-57
2023/03/04 05:31:33;;;;;;;5.00;1.17;;;5.90;99.90;;;;;;4933941;29;20130;-59
2023/03/04 05:34:00;;;;;;;14.85;2.67;;;5.90;99.90;;;;;;4951402;29;20059;-57
2023/03/04 05:36:27;;;;;;;6.38;1.20;;;5.90;99.90;;;;;;4934323;29;20494;-57
2023/03/04 05:38:54;;;;;;;9.05;1.52;;;5.90;99.90;;;;;;4952229;29;20055;-60
2023/03/04 05:41:21;;;;;;;8.63;1.55;;;5.90;99.90;;;;;;4952142;29;20053;-56
2023/03/04 05:43:48;;;;;;;15.63;1.60;;;5.90;99.90;;;;;;4951848;29;20040;-58
2023/03/04 05:46:16;;;;;;;7.55;1.73;;;5.90;99.90;;;;;;4953447;28;20050;-57
2023/03/04 05:48:43;;;;;;;8.48;1.50;;;5.80;99.90;;;;;;4952216;29;20118;-57
2023/03/04 05:51:10;;;;;;;6.25;1.52;;;5.80;99.90;;;;;;4951467;29;20055;-57
2023/03/04 05:53:38;;;;;;;10.18;2.22;;;5.80;99.90;;;;;;4950746;29;20055;-53
2023/03/04 05:56:12;;;;;;;15.93;2.30;;;5.80;99.90;;;;;;4951165;29;20051;-57
2023/03/04 05:58:38;;;;;;;7.25;1.67;;;5.70;99.90;;;;;;4950988;29;20158;-59
2023/03/04 06:01:05;;;;;;;9.18;1.58;;;5.70;99.90;;;;;;4951131;29;20078;-58
2023/03/04 06:03:32;;;;;;;7.75;1.85;;;5.70;99.90;;;;;;4950302;28;20047;-58
2023/03/04 06:05:59;;;;;;;10.25;1.75;;;5.70;99.90;;;;;;4951144;29;20055;-56
2023/03/04 06:08:26;;;;;;;11.32;2.20;;;5.70;99.90;;;;;;4950284;29;20427;-58
2023/03/04 06:10:54;;;;;;;8.13;1.58;;;5.70;99.90;;;;;;4950775;29;20055;-58
2023/03/04 06:13:21;;;;;;;9.85;2.50;;;5.70;99.90;;;;;;4950061;29;20055;-56
2023/03/04 06:15:52;;;;;;;5.60;1.60;;;5.80;99.90;;;;;;4950413;29;20530;-57
2023/03/04 06:18:19;;;;;;;12.18;1.98;;;5.70;99.90;;;;;;4934019;29;20039;-58
2023/03/04 06:20:45;;;;;;;10.93;1.98;;;5.80;99.90;;;;;;4950511;29;20047;-57
2023/03/04 06:23:12;;;;;;;6.22;2.08;;;5.80;99.90;;;;;;4949871;29;20043;-55
2023/03/04 06:25:39;;;;;;;12.13;2.63;;;5.70;99.90;;;;;;4950085;29;20498;-55
2023/03/04 06:28:05;;;;;;;9.38;2.13;;;5.80;99.90;;;;;;4950315;29;20066;-55
2023/03/04 06:30:32;;;;;;;12.95;2.53;;;5.70;99.90;;;;;;4933192;29;20484;-55
2023/03/04 06:32:59;;;;;;;14.18;2.65;;;5.70;99.90;;;;;;4949931;29;20458;-56
2023/03/04 06:35:26;;;;;;;11.68;3.28;;;5.60;99.90;;;;;;4950592;29;20074;-57
2023/03/04 06:37:52;;;;;;;7.93;2.10;;;5.70;99.90;;;;;;4950094;29;20066;-57
2023/03/04 06:40:19;;;;;;;6.53;1.95;;;5.70;99.90;;;;;;4950359;29;20462;-57
2023/03/04 06:42:46;;;;;;;10.77;2.30;;;5.70;99.90;;;;;;4932791;29;20487;-59
2023/03/04 06:45:13;;;;;;;7.82;3.15;;;5.70;99.90;;;;;;4949747;29;20077;-56
2023/03/04 06:47:39;;;;;;;7.97;1.88;;;5.70;99.90;;;;;;4950475;29;20055;-56
2023/03/04 06:50:07;;;;;;;8.13;2.05;;;5.60;99.90;;;;;;4933117;29;20050;-58
2023/03/04 06:52:33;;;;;;;9.48;2.00;;;5.70;99.90;;;;;;4931189;29;20050;-58
2023/03/04 06:55:00;;;;;;;14.45;2.05;;;5.70;99.90;;;;;;4946008;29;20058;-56
2023/03/04 06:57:27;;;;;;;4.68;1.90;;;5.70;99.90;;;;;;4950131;29;20053;-57
2023/03/04 06:59:53;;;;;;;7.25;2.33;;;5.70;99.90;;;;;;4949486;29;20514;-57
2023/03/04 07:02:20;;;;;;;12.25;1.85;;;5.70;99.90;;;;;;4949657;29;20047;-58
2023/03/04 07:04:47;;;;;;;9.10;1.98;;;5.70;99.90;;;;;;4949463;29;20040;-57
2023/03/04 07:07:14;;;;;;;10.18;2.88;;;5.60;99.90;;;;;;4932851;29;20138;-57
2023/03/04 07:09:40;;;;;;;8.33;2.33;;;5.60;99.90;;;;;;4606261;28;10000687;-56
2023/03/04 07:12:07;;;;;;;9.38;1.98;;;5.60;99.90;;;;;;4947058;29;20285;-59
2023/03/04 07:14:34;;;;;;;7.05;2.00;;;5.70;99.90;;;;;;4947445;28;20156;-58
2023/03/04 07:17:01;;;;;;;4.85;1.38;;;5.60;99.90;;;;;;4936564;29;20052;-58
2023/03/04 07:19:27;;;;;;;11.90;2.08;;;5.60;99.90;;;;;;4952996;29;20066;-58
2023/03/04 07:21:55;;;;;;;9.82;1.92;;;5.60;99.90;;;;;;4952772;28;20883;-58
2023/03/04 07:24:22;;;;;;;6.25;1.58;;;5.70;99.90;;;;;;4952452;28;20070;-56
2023/03/04 07:26:49;;;;;;;10.40;1.90;;;5.60;99.90;;;;;;4953054;29;20133;-56
2023/03/04 07:29:15;;;;;;;10.05;1.80;;;5.60;99.90;;;;;;4952822;28;20051;-57
2023/03/04 07:31:42;;;;;;;5.07;1.40;;;5.70;99.90;;;;;;4952414;28;20569;-58
2023/03/04 07:34:11;;;;;;;10.93;2.20;;;5.70;99.90;;;;;;4944001;29;20063;-58
2023/03/04 07:36:37;;;;;;;10.30;1.83;;;5.70;99.90;;;;;;4931150;29;20058;-59
2023/03/04 07:39:05;;;;;;;9.20;2.15;;;5.60;99.90;;;;;;4939454;29;20055;-58
2023/03/04 07:41:35;;;;;;;7.75;2.08;;;5.60;99.90;;;;;;4943783;29;20083;-56
2023/03/04 07:44:02;;;;;;;14.40;1.92;;;5.60;99.90;;;;;;4951508;28;20154;-56
2023/03/04 07:46:29;;;;;;;6.00;1.00;;;5.60;99.90;;;;;;4951999;29;20055;-58
2023/03/04 07:48:55;;;;;;;9.77;1.98;;;5.60;99.90;;;;;;4953637;28;20055;-58
2023/03/04 07:51:23;;;;;;;8.15;1.60;;;5.70;99.90;;;;;;4935473;29;20544;-58
2023/03/04 07:53:52;;;;;;;4.20;1.08;;;5.70;99.90;;;;;;4952593;29;20055;-58
2023/03/04 07:56:20;;;;;;;4.75;1.05;;;5.60;99.90;;;;;;4952656;28;20078;-57
2023/03/04 07:58:47;;;;;;;12.50;2.47;;;5.60;99.90;;;;;;4953842;28;20043;-58
2023/03/04 08:01:16;;;;;;;9.70;1.75;;;5.70;99.90;;;;;;4947076;29;20055;-58
2023/03/04 08:03:43;;;;;;;8.70;1.75;;;5.70;99.90;;;;;;4947816;28;20552;-57
2023/03/04 08:06:11;;;;;;;10.02;1.50;;;5.60;99.90;;;;;;4954079;28;20083;-58
2023/03/04 08:08:38;;;;;;;8.70;1.80;;;5.60;99.90;;;;;;4957510;28;20149;-58
2023/03/04 08:11:06;;;;;;;11.18;1.98;;;5.60;99.90;;;;;;4956391;28;20058;-55
2023/03/04 08:13:33;;;;;;;3.72;1.50;;;5.60;99.90;;;;;;4952731;28;20058;-56
2023/03/04 08:16:00;;;;;;;8.38;1.77;;;5.60;99.90;;;;;;4951991;28;20141;-55
2023/03/04 08:18:27;;;;;;;9.88;1.73;;;5.70;99.90;;;;;;4951315;28;20055;-58
2023/03/04 08:20:53;;;;;;;10.27;1.67;;;5.70;99.90;;;;;;4958082;28;20089;-56
2023/03/04 08:23:20;;;;;;;10.98;2.38;;;5.70;99.90;;;;;;4935035;29;20054;-58
2023/03/04 08:25:47;;;;;;;6.25;1.55;;;5.70;99.90;;;;;;4971366;28;20059;-60
2023/03/04 08:28:14;;;;;;;8.23;1.58;;;5.80;99.90;;;;;;4951893;28;20141;-58
2023/03/04 08:30:41;;;;;;;8.80;1.63;;;5.80;99.90;;;;;;4931878;29;20223;-58
2023/03/04 08:33:08;;;;;;;5.80;1.55;;;5.90;99.90;;;;;;4948887;29;20051;-59
2023/03/04 08:35:38;;;;;;;5.22;1.20;;;5.90;99.90;;;;;;4949102;28;20061;-58
2023/03/04 08:38:05;;;;;;;5.80;1.45;;;5.90;99.90;;;;;;4931187;29;20067;-58
2023/03/04 08:40:32;;;;;;;7.60;1.63;;;6.00;99.90;;;;;;4948642;29;20055;-58
2023/03/04 08:42:59;;;;;;;9.93;1.67;;;6.10;99.90;;;;;;4931930;29;20054;-58
2023/03/04 08:45:26;;;;;;;9.98;1.80;;;6.10;99.90;;;;;;4954970;28;20105;-57
2023/03/04 08:47:53;;;;;;;9.65;1.08;;;6.20;99.90;;;;;;4949168;29;20039;-61
2023/03/04 08:50:20;;;;;;;6.28;2.38;;;6.20;99.90;;;;;;4949206;29;20875;-61
2023/03/04 08:52:48;;;;;;;6.05;1.13;;;6.20;99.90;;;;;;4949121;29;20047;-58
2023/03/04 08:55:15;;;;;;;5.65;1.30;;;6.20;99.90;;;;;;4949154;29;20093;-57
2023/03/04 08:57:41;;;;;;;8.40;1.70;;;6.30;99.90;;;;;;4931327;29;20082;-58
2023/03/04 09:00:09;;;;;;;5.05;1.90;;;6.20;99.90;;;;;;4946053;29;20094;-58
2023/03/04 09:02:36;;;;;;;6.75;1.33;;;6.20;99.90;;;;;;4940815;29;20110;-57
2023/03/04 09:05:03;;;;;;;4.55;1.00;;;6.20;99.90;;;;;;4945319;29;20078;-58
2023/03/04 09:07:30;;;;;;;2.75;0.88;;;6.20;99.90;;;;;;4923809;29;20130;-59
2023/03/04 09:09:56;;;;;;;9.50;1.40;;;6.20;99.90;;;;;;4944826;29;20081;-58
2023/03/04 09:12:23;;;;;;;6.68;1.20;;;6.30;99.90;;;;;;4944987;29;20072;-59
2023/03/04 09:14:50;;;;;;;6.38;0.90;;;6.40;99.90;;;;;;4941792;29;20542;-58
2023/03/04 09:17:36;;;;;;;2.70;1.23;;;6.40;99.90;;;;;;4939591;29;20047;-56
2023/03/04 09:20:03;;;;;;;12.13;1.58;;;6.50;99.90;;;;;;4943125;29;20523;-59
2023/03/04 09:22:30;;;;;;;6.22;1.33;;;6.60;99.90;;;;;;4938832;29;20875;-59
2023/03/04 09:24:57;;;;;;;8.23;1.25;;;6.50;99.90;;;;;;4944548;29;20048;-58
2023/03/04 09:27:24;;;;;;;7.63;2.30;;;6.60;99.90;;;;;;4942502;29;20143;-59
2023/03/04 09:29:51;;;;;;;3.65;1.05;;;6.70;99.90;;;;;;4944216;29;20556;-58
2023/03/04 09:32:18;;;;;;;6.20;1.27;;;6.70;99.90;;;;;;4938585;29;20066;-59
2023/03/04 09:34:44;;;;;;;10.15;3.50;;;6.70;99.90;;;;;;4942064;29;20148;-58
2023/03/04 09:37:11;;;;;;;4.85;1.05;;;6.80;99.90;;;;;;4941928;28;20138;-59
2023/03/04 09:39:38;;;;;;;5.22;1.20;;;6.80;99.90;;;;;;4940991;29;20053;-59
2023/03/04 09:42:05;;;;;;;14.32;1.75;;;6.90;99.90;;;;;;4941951;29;20060;-57
2023/03/04 09:44:35;;;;;;;6.30;1.80;;;6.90;99.90;;;;;;4923301;29;20153;-59
2023/03/04 09:47:08;;;;;;;6.43;1.63;;;7.00;99.90;;;;;;4892612;29;20046;-57
2023/03/04 09:49:36;;;;;;;12.48;1.90;;;7.00;99.90;;;;;;4955759;28;20043;-58
2023/03/04 09:52:25;;;;;;;10.30;1.60;;;7.00;99.90;;;;;;4926290;29;20063;-58
2023/03/04 09:54:55;;;;;;;5.22;1.33;;;7.00;99.90;;;;;;4954956;28;20047;-58
2023/03/04 09:57:43;;;;;;;8.30;1.15;;;7.10;99.90;;;;;;4942671;29;20047;-58
2023/03/04 10:00:18;;;;;;;10.95;2.45;;;7.10;99.90;;;;;;4941280;29;20766;-60
2023/03/04 10:02:54;;;;;;;10.02;1.30;;;7.20;99.90;;;;;;4942376;29;20054;-58
2023/03/04 10:05:21;;;;;;;5.60;1.13;;;7.20;99.90;;;;;;4940792;29;20447;-59
2023/03/04 10:07:54;;;;;;;13.07;2.00;;;7.20;99.90;;;;;;4904161;29;20575;-59
2023/03/04 10:10:36;;;;;;;6.85;1.23;;;7.20;99.90;;;;;;4923779;29;20054;-60
2023/03/04 10:13:03;;;;;;;6.22;1.17;;;7.10;99.90;;;;;;4951651;28;20708;-58
2023/03/04 10:15:38;;;;;;;7.30;1.48;;;7.10;99.90;;;;;;4940186;29;20043;-59
2023/03/04 10:18:21;;;;;;;7.65;1.42;;;7.00;99.90;;;;;;4951258;28;20058;-59
2023/03/04 10:20:55;;;;;;;5.95;1.52;;;7.00;99.90;;;;;;4923524;29;20455;-58
2023/03/04 10:23:24;;;;;;;8.18;1.25;;;7.10;99.90;;;;;;4936576;28;20848;-58
2023/03/04 10:25:53;;;;;;;3.28;1.20;;;7.10;99.90;;;;;;4939812;29;20047;-58
2023/03/04 10:28:23;;;;;;;10.82;2.45;;;7.10;99.90;;;;;;4938619;29;20051;-59
2023/03/04 10:31:16;;;;;;;4.70;1.27;;;7.20;99.90;;;;;;4944080;29;20051;-59
2023/03/04 10:33:42;;;;;;;8.32;1.63;;;7.20;99.90;;;;;;4905683;29;20055;-59
2023/03/04 10:36:35;;;;;;;15.63;4.25;;;7.30;99.90;;;;;;4921163;29;20845;-59
2023/03/04 10:39:09;;;;;;;15.05;1.75;;;7.30;99.90;;;;;;4935760;29;20055;-58
2023/03/04 10:41:39;;;;;;;12.55;2.38;;;7.40;99.90;;;;;;4938401;29;20051;-57
2023/03/04 10:44:10;;;;;;;16.38;2.90;;;7.40;99.90;;;;;;4919307;29;20522;-59
2023/03/04 10:46:40;;;;;;;9.75;1.88;;;7.40;99.90;;;;;;4937956;29;20130;-56
2023/03/04 10:49:08;;;;;;;6.65;2.13;;;7.50;99.90;;;;;;4941239;28;20055;-54
2023/03/04 10:51:52;;;;;;;4.38;1.80;;;7.50;99.90;;;;;;4928665;29;20050;-55
2023/03/04 10:54:52;;;;;;;3.72;1.52;;;7.60;99.90;;;;;;4934450;29;20114;-55
2023/03/04 10:57:36;;;;;;;3.35;1.40;;;7.60;99.90;;;;;;4885507;29;20547;-57
2023/03/04 11:00:22;;;;;;;;;;;7.60;99.90;;;;;;4950490;28;20047;-58
2023/03/04 11:02:49;;;;;;;10.18;1.88;;;7.50;99.90;;;;;;4946251;28;19922;-54
2023/03/04 11:05:18;;;;;;;5.95;1.60;;;7.50;99.90;;;;;;4923857;29;20094;-54
2023/03/04 11:07:54;;;;;;;6.18;2.38;;;7.50;99.90;;;;;;4941928;29;20166;-58
2023/03/04 11:10:50;;;;;;;10.15;2.53;;;7.60;99.90;;;;;;4944964;29;20054;-56
2023/03/04 11:13:22;;;;;;;14.95;3.00;;;7.70;99.90;;;;;;4942884;28;20443;-60
2023/03/04 11:16:05;;;;;;;12.23;3.30;;;7.70;99.90;;;;;;4944983;29;20055;-58
2023/03/04 11:18:35;;;;;;;7.68;3.03;;;7.80;99.90;;;;;;4927422;29;20502;-57
2023/03/04 11:21:02;;;;;;;13.80;3.38;;;7.90;99.90;;;;;;4945419;29;20420;-59
2023/03/04 11:24:00;;;;;;;8.30;3.30;;;7.90;99.90;;;;;;4944942;29;20047;-58
2023/03/04 11:26:49;;;;;;;7.93;3.90;;;7.80;99.90;;;;;;4906792;29;20051;-59
2023/03/04 11:29:30;;;;;;;9.00;3.83;;;7.80;99.90;;;;;;4910732;29;20061;-57
2023/03/04 11:32:03;;;;;;;10.75;4.43;;;7.70;99.90;;;;;;4902432;29;20055;-56
2023/03/04 11:34:48;;;;;;;13.70;3.80;;;7.70;99.90;;;;;;4948858;28;20114;-57
2023/03/04 11:37:21;;;;;;;9.38;4.45;;;7.60;99.90;;;;;;4942475;29;20058;-57
2023/03/04 11:40:11;;;;;;;12.95;4.07;;;7.50;99.90;;;;;;4926133;29;20054;-56
2023/03/04 11:43:01;;;;;;;11.23;6.38;;;7.60;99.90;;;;;;4920436;29;20047;-57
2023/03/04 11:45:46;;;;;;;8.15;3.13;;;7.60;99.90;;;;;;4937045;29;20458;-57
2023/03/04 11:48:25;;;;;;;12.38;3.38;;;7.70;99.90;;;;;;4922444;29;20621;-58
2023/03/04 11:51:19;;;;;;;5.13;2.67;;;7.80;99.90;;;;;;4936665;29;20066;-57
2023/03/04 11:54:01;;;;;;;7.95;3.20;;;7.80;99.90;;;;;;4928966;29;20146;-58
2023/03/04 11:56:31;;;;;;;5.30;3.30;;;7.80;99.90;;;;;;4924175;29;20460;-57
2023/03/04 11:59:16;;;;;;;6.50;3.97;;;7.80;99.90;;;;;;4938657;29;20051;-57
2023/03/04 12:02:14;;;;;;;11.60;3.58;;;7.80;99.90;;;;;;4939000;29;20061;-60
2023/03/04 12:05:02;;;;;;;10.82;3.33;;;7.80;99.90;;;;;;4948858;29;20063;-56
2023/03/04 12:07:48;;;;;;;9.43;3.33;;;7.70;99.90;;;;;;4949777;29;20156;-58
2023/03/04 12:10:18;;;;;;;9.68;3.03;;;7.60;99.90;;;;;;4948319;29;20069;-58
2023/03/04 12:12:57;;;;;;;14.50;3.58;;;7.70;99.90;;;;;;4949305;29;20773;-57
2023/03/04 12:15:40;;;;;;;8.57;2.85;;;7.70;99.90;;;;;;4915967;29;20137;-57
2023/03/04 12:18:06;;;;;;;8.13;2.58;;;7.60;99.90;;;;;;4933909;29;20055;-57
2023/03/04 12:20:33;;;;;;;23.60;5.43;;;7.50;99.90;;;;;;4948404;29;20537;-55
2023/03/04 12:23:19;;;;;;;11.20;2.95;;;7.40;99.90;;;;;;4948158;29;20123;-56
2023/03/04 12:25:58;;;;;;;5.13;2.50;;;7.50;99.90;;;;;;4948164;29;20055;-60
2023/03/04 12:28:24;;;;;;;11.20;2.92;;;7.60;99.90;;;;;;4948770;29;20047;-54
2023/03/04 12:31:07;;;;;;;11.65;3.38;;;7.60;99.90;;;;;;4948220;29;20130;-57
2023/03/04 12:33:46;;;;;;;8.25;2.85;;;7.70;99.90;;;;;;4932861;29;20055;-58
2023/03/04 12:36:43;;;;;;;5.28;2.53;;;7.60;99.90;;;;;;4931634;29;20154;-57
2023/03/04 12:39:31;;;;;;;24.58;6.28;;;7.60;99.90;;;;;;4929821;29;20112;-58
2023/03/04 12:42:28;;;;;;;3.15;1.90;;;7.80;99.90;;;;;;4948316;29;20055;-58
2023/03/04 12:45:24;;;;;;;5.05;2.50;;;7.60;99.90;;;;;;4931525;28;20079;-55
2023/03/04 12:47:56;;;;;;;10.77;2.53;;;7.60;99.90;;;;;;4947084;29;20051;-56
2023/03/04 12:50:29;;;;;;;4.95;2.40;;;7.50;99.90;;;;;;4948238;29;20078;-57
2023/03/04 12:53:16;;;;;;;7.53;2.45;;;7.60;99.90;;;;;;4915919;29;20478;-56
2023/03/04 12:55:44;;;;;;;9.07;2.50;;;7.60;99.90;;;;;;4948122;29;20159;-59
2023/03/04 12:58:27;;;;;;;5.38;2.40;;;7.70;99.90;;;;;;4947704;29;20047;-57
2023/03/04 13:01:06;;;;;;;7.20;1.70;;;7.80;99.90;;;;;;4914800;29;20454;-58
2023/03/04 13:04:03;;;;;;;3.40;1.70;;;7.80;99.90;;;;;;4948190;29;20097;-59
2023/03/04 13:06:35;;;;;;;4.97;1.83;;;7.90;99.90;;;;;;4920415;29;20082;-59
2023/03/04 13:09:23;;;;;;;5.10;1.90;;;7.90;99.90;;;;;;4948281;29;20067;-59